Time;durP1;ratioP1;P1;durP2;ratioP2;P2;SDS_P1;SDS_P2;PMS_P1;PMS_P2;Temp;Humidity;BMP_temperature;BMP_pressure;BME280_temperature;BME280_humidity;BME280_pressure;Samples;Min_cycle;Max_cycle;Signal;HPM_P1;HPM_P2
2022/11/14 00:01:37;;;;;;;;;;;;;;;13.62;97.57;100883.84;7353770;19;20240;-55
2022/11/14 00:04:04;;;;;;;;;;;;;;;13.61;97.82;100874.25;7353235;19;19930;-57
2022/11/14 00:06:31;;;;;;;;;;;;;;;13.59;97.80;100878.91;7347195;19;19923;-58
2022/11/14 00:08:57;;;;;;;;;;;;;;;13.58;97.96;100879.91;7356526;19;19927;-58
2022/11/14 00:11:24;;;;;;;;;;;;;;;13.58;98.04;100874.63;7365469;19;19935;-55
2022/11/14 00:13:51;;;;;;;;;;;;;;;13.57;97.54;100869.50;7367192;19;19927;-60
2022/11/14 00:16:17;;;;;;;;;;;;;;;13.57;97.67;100864.22;7360771;19;20473;-53
2022/11/14 00:18:44;;;;;;;;;;;;;;;13.56;97.28;100859.94;7366983;19;19945;-58
2022/11/14 00:21:10;;;;;;;;;;;;;;;13.56;97.31;100857.28;7366130;19;19944;-60
2022/11/14 00:23:37;;;;;;;;;;;;;;;13.54;96.91;100856.63;7365181;19;19923;-53
2022/11/14 00:26:04;;;;;;;;;;;;;;;13.52;96.76;100848.03;7365538;19;19918;-59
2022/11/14 00:28:30;;;;;;;;;;;;;;;13.51;96.99;100847.22;7364392;19;19931;-56
2022/11/14 00:30:58;;;;;;;;;;;;;;;13.52;97.37;100834.81;7363098;19;20361;-59
2022/11/14 00:33:24;;;;;;;;;;;;;;;13.51;97.58;100833.19;7366387;19;21598;-59
2022/11/14 00:35:52;;;;;;;;;;;;;;;13.50;97.63;100828.91;7361342;19;19952;-58
2022/11/14 00:38:19;;;;;;;;;;;;;;;13.48;97.73;100836.16;7362700;19;19957;-60
2022/11/14 00:40:46;;;;;;;;;;;;;;;13.45;98.22;100833.88;7362392;19;19922;-57
2022/11/14 00:43:13;;;;;;;;;;;;;;;13.43;98.30;100838.50;7364428;19;20524;-56
2022/11/14 00:45:41;;;;;;;;;;;;;;;13.42;98.61;100834.19;7364166;19;19949;-57
2022/11/14 00:48:08;;;;;;;;;;;;;;;13.43;98.84;100838.50;7364589;19;19953;-57
2022/11/14 00:50:34;;;;;;;;;;;;;;;13.42;99.02;100836.84;7365058;19;19960;-59
2022/11/14 00:53:01;;;;;;;;;;;;;;;13.41;98.85;100822.78;7365199;19;19930;-57
2022/11/14 00:55:28;;;;;;;;;;;;;;;13.42;98.56;100823.63;7362091;19;19923;-58
2022/11/14 00:57:54;;;;;;;;;;;;;;;13.41;98.65;100822.00;7362028;19;19922;-58
2022/11/14 01:00:21;;;;;;;;;;;;;;;13.41;98.36;100816.72;7361999;19;20368;-59
2022/11/14 01:02:48;;;;;;;;;;;;;;;13.41;98.47;100820.16;7364700;19;19927;-57
2022/11/14 01:05:14;;;;;;;;;;;;;;;13.41;98.44;100814.88;7365474;19;19923;-58
2022/11/14 01:07:41;;;;;;;;;;;;;;;13.43;98.14;100812.06;7364536;19;19927;-58
2022/11/14 01:10:08;;;;;;;;;;;;;;;13.43;98.07;100804.97;7365823;19;19915;-58
2022/11/14 01:12:35;;;;;;;;;;;;;;;13.43;98.00;100804.97;7362406;19;19972;-56
2022/11/14 01:15:02;;;;;;;;;;;;;;;13.44;98.00;100803.97;7365071;19;19923;-56
2022/11/14 01:17:28;;;;;;;;;;;;;;;13.44;97.49;100798.69;7364911;19;19935;-57
2022/11/14 01:19:55;;;;;;;;;;;;;;;13.44;97.26;100796.03;7362413;19;19922;-56
2022/11/14 01:22:22;;;;;;;;;;;;;;;13.44;97.11;100789.94;7363258;19;19959;-59
2022/11/14 01:24:48;;;;;;;;;;;;;;;13.44;97.11;100793.41;7365154;19;20021;-59
2022/11/14 01:27:15;;;;;;;;;;;;;;;13.46;96.98;100793.22;7364057;19;20010;-57
2022/11/14 01:29:42;;;;;;;;;;;;;;;13.46;96.78;100788.75;7360223;19;19915;-59
2022/11/14 01:32:08;;;;;;;;;;;;;;;13.44;96.63;100784.63;7365111;19;20357;-58
2022/11/14 01:34:35;;;;;;;;;;;;;;;13.44;96.71;100780.19;7365343;19;19927;-56
2022/11/14 01:37:02;;;;;;;;;;;;;;;13.46;96.51;100774.72;7362026;19;19927;-57
2022/11/14 01:39:29;;;;;;;;;;;;;;;13.45;96.37;100767.78;7364605;19;19934;-58
2022/11/14 01:41:55;;;;;;;;;;;;;;;13.44;96.46;100764.31;7364015;19;19923;-59
2022/11/14 01:44:32;;;;;;;;;;;;;;;13.43;96.58;100767.97;7362020;19;19919;-59
2022/11/14 01:46:58;;;;;;;;;;;;;;;13.44;96.72;100755.56;7361236;19;19927;-58
2022/11/14 01:49:30;;;;;;;;;;;;;;;13.46;96.89;100758.88;7365480;19;20184;-56
2022/11/14 01:52:01;;;;;;;;;;;;;;;13.46;96.87;100762.31;7363668;19;20274;-59
2022/11/14 01:54:29;;;;;;;;;;;;;;;13.46;96.96;100759.66;7360234;19;20502;-58
2022/11/14 01:56:58;;;;;;;;;;;;;;;13.48;96.89;100764.78;7364668;19;20220;-58
2022/11/14 01:59:29;;;;;;;;;;;;;;;13.48;96.43;100754.22;7361467;19;19987;-59
2022/11/14 02:01:57;;;;;;;;;;;;;;;13.47;96.26;100757.84;7363003;19;19973;-60
2022/11/14 02:04:26;;;;;;;;;;;;;;;13.46;96.14;100745.66;7357287;19;19931;-58
2022/11/14 02:06:56;;;;;;;;;;;;;;;13.47;96.25;100755.22;7361015;19;19923;-57
2022/11/14 02:09:23;;;;;;;;;;;;;;;13.48;96.42;100754.22;7363355;19;20607;-59
2022/11/14 02:11:51;;;;;;;;;;;;;;;13.49;96.36;100751.41;7363973;19;19973;-59
2022/11/14 02:14:18;;;;;;;;;;;;;;;13.50;95.96;100757.53;7362000;19;19927;-58
2022/11/14 02:16:44;;;;;;;;;;;;;;;13.51;96.04;100757.31;7361761;19;20299;-57
2022/11/14 02:19:40;;;;;;;;;;;;;;;13.51;96.15;100753.88;7364817;19;19919;-59
2022/11/14 02:22:07;;;;;;;;;;;;;;;13.52;96.19;100747.59;7363930;19;20337;-59
2022/11/14 02:24:34;;;;;;;;;;;;;;;13.54;96.51;100748.25;7365165;19;19915;-55
2022/11/14 02:27:01;;;;;;;;;;;;;;;13.53;96.45;100742.13;7358446;19;19930;-60
2022/11/14 02:29:30;;;;;;;;;;;;;;;13.54;96.55;100738.50;7361580;19;19923;-58
2022/11/14 02:31:57;;;;;;;;;;;;;;;13.52;96.32;100739.66;7362866;19;19943;-58
2022/11/14 02:34:24;;;;;;;;;;;;;;;13.53;96.40;100743.94;7365174;19;19931;-56
2022/11/14 02:36:50;;;;;;;;;;;;;;;13.51;96.46;100738.81;7359929;19;20015;-59
2022/11/14 02:39:17;;;;;;;;;;;;;;;13.51;96.40;100741.47;7363673;19;20008;-59
2022/11/14 02:41:44;;;;;;;;;;;;;;;13.52;96.69;100737.00;7362017;19;19936;-57
2022/11/14 02:44:10;;;;;;;;;;;;;;;13.51;96.70;100735.38;7359793;19;19919;-58
2022/11/14 02:46:37;;;;;;;;;;;;;;;13.49;96.79;100730.25;7360318;19;19922;-56
2022/11/14 02:49:04;;;;;;;;;;;;;;;13.48;97.01;100730.44;7361681;19;20011;-57
2022/11/14 02:51:30;;;;;;;;;;;;;;;13.48;96.88;100725.13;7361959;19;19943;-56
2022/11/14 02:53:57;;;;;;;;;;;;;;;13.47;97.16;100716.38;7363102;19;20242;-60
2022/11/14 02:56:24;;;;;;;;;;;;;;;13.47;97.18;100723.50;7363670;19;19927;-57
2022/11/14 02:58:51;;;;;;;;;;;;;;;13.47;97.10;100711.09;7360023;19;19918;-59
2022/11/14 03:01:18;;;;;;;;;;;;;;;13.48;97.09;100714.56;7361775;19;19930;-59
2022/11/14 03:03:47;;;;;;;;;;;;;;;13.46;97.06;100717.38;7358657;19;20416;-57
2022/11/14 03:06:14;;;;;;;;;;;;;;;13.46;96.99;100719.22;7359297;19;20316;-56
2022/11/14 03:08:40;;;;;;;;;;;;;;;13.47;97.52;100716.38;7360400;19;20475;-57
2022/11/14 03:11:08;;;;;;;;;;;;;;;13.46;97.61;100713.94;7363469;19;21364;-58
2022/11/14 03:13:35;;;;;;;;;;;;;;;13.46;97.36;100719.22;7352823;19;21474;-58
2022/11/14 03:16:06;;;;;;;;;;;;;;;13.44;97.14;100711.47;7360582;19;19915;-57
2022/11/14 03:18:33;;;;;;;;;;;;;;;13.44;97.30;100708.00;7362374;19;19934;-58
2022/11/14 03:21:04;;;;;;;;;;;;;;;13.44;97.29;100713.28;7359047;19;19926;-56
2022/11/14 03:23:31;;;;;;;;;;;;;;;13.44;97.37;100708.00;7363019;19;20412;-56
2022/11/14 03:25:59;;;;;;;;;;;;;;;13.42;97.33;100702.88;7359300;19;20201;-59
2022/11/14 03:28:36;;;;;;;;;;;;;;;13.42;97.38;100702.88;7360502;19;19941;-60
2022/11/14 03:31:05;;;;;;;;;;;;;;;13.41;97.44;100693.28;7359070;19;20026;-58
2022/11/14 03:33:32;;;;;;;;;;;;;;;13.41;97.41;100693.28;7360900;19;19929;-55
2022/11/14 03:35:59;;;;;;;;;;;;;;;13.37;97.19;100678.78;7359332;19;20396;-60
2022/11/14 03:38:26;;;;;;;;;;;;;;;13.39;97.52;100686.53;7361339;19;20407;-60
2022/11/14 03:40:56;;;;;;;;;;;;;;;13.37;97.55;100685.88;7361352;19;20527;-58
2022/11/14 03:43:23;;;;;;;;;;;;;;;13.36;97.77;100684.25;7358348;19;19930;-57
2022/11/14 03:45:50;;;;;;;;;;;;;;;13.35;97.64;100683.44;7362718;19;19929;-56
2022/11/14 03:48:16;;;;;;;;;;;;;;;13.35;97.72;100682.63;7367473;19;19948;-57
2022/11/14 03:50:43;;;;;;;;;;;;;;;13.35;97.51;100685.25;7367592;19;19927;-58
2022/11/14 03:53:10;;;;;;;;;;;;;;;13.34;97.84;100686.25;7368606;19;19939;-57
2022/11/14 03:55:38;;;;;;;;;;;;;;;13.34;97.87;100683.59;7367722;19;19923;-57
2022/11/14 03:58:04;;;;;;;;;;;;;;;13.34;97.62;100681.78;7366573;19;20535;-55
2022/11/14 04:00:31;;;;;;;;;;;;;;;13.33;97.65;100688.06;7367157;19;19926;-58
2022/11/14 04:02:58;;;;;;;;;;;;;;;13.30;97.49;100683.13;7368527;19;20534;-58
2022/11/14 04:05:25;;;;;;;;;;;;;;;13.29;97.53;100678.84;7367058;19;19930;-59
2022/11/14 04:07:52;;;;;;;;;;;;;;;13.30;97.52;100677.03;7366160;19;19926;-59
2022/11/14 04:10:19;;;;;;;;;;;;;;;13.28;97.62;100666.63;7364949;19;19919;-58
2022/11/14 04:12:47;;;;;;;;;;;;;;;13.28;97.80;100669.25;7365616;19;19933;-59
2022/11/14 04:15:15;;;;;;;;;;;;;;;13.24;97.77;100663.50;7356859;19;19995;-58
2022/11/14 04:17:42;;;;;;;;;;;;;;;13.22;97.73;100665.50;7367238;19;19923;-59
2022/11/14 04:20:09;;;;;;;;;;;;;;;13.22;97.87;100670.78;7364350;19;20360;-57
2022/11/14 04:22:36;;;;;;;;;;;;;;;13.22;98.09;100667.31;7365368;19;19930;-58
2022/11/14 04:25:03;;;;;;;;;;;;;;;13.22;97.93;100662.03;7366883;19;20343;-59
2022/11/14 04:27:30;;;;;;;;;;;;;;;13.21;98.05;100655.91;7362449;19;19947;-59
2022/11/14 04:29:57;;;;;;;;;;;;;;;13.22;98.14;100657.56;7366590;19;19965;-57
2022/11/14 04:32:23;;;;;;;;;;;;;;;13.23;98.18;100661.88;7366438;19;19936;-60
2022/11/14 04:34:50;;;;;;;;;;;;;;;13.22;98.05;100660.22;7368636;19;20313;-55
2022/11/14 04:37:17;;;;;;;;;;;;;;;13.21;97.92;100660.38;7365636;19;19923;-56
2022/11/14 04:39:43;;;;;;;;;;;;;;;13.21;98.08;100655.91;7367629;19;19956;-57
2022/11/14 04:42:10;;;;;;;;;;;;;;;13.21;97.80;100647.16;7364590;19;19947;-57
2022/11/14 04:44:37;;;;;;;;;;;;;;;13.23;97.97;100639.91;7363607;19;19931;-58
2022/11/14 04:47:03;;;;;;;;;;;;;;;13.24;97.80;100642.38;7364841;19;19922;-58
2022/11/14 04:49:30;;;;;;;;;;;;;;;13.24;97.72;100639.72;7367042;19;19911;-57
2022/11/14 04:51:57;;;;;;;;;;;;;;;13.24;97.65;100636.25;7363580;19;20053;-58
2022/11/14 04:54:23;;;;;;;;;;;;;;;13.24;97.51;100628.34;7367608;19;19927;-59
2022/11/14 04:56:50;;;;;;;;;;;;;;;13.25;97.08;100633.47;7365009;19;19961;-58
2022/11/14 04:59:16;;;;;;;;;;;;;;;13.24;97.19;100620.41;7365050;19;19923;-57
2022/11/14 05:01:46;;;;;;;;;;;;;;;13.23;97.15;100624.03;7364840;19;19923;-58
2022/11/14 05:04:13;;;;;;;;;;;;;;;13.22;96.90;100623.22;7363224;19;20559;-57
2022/11/14 05:06:40;;;;;;;;;;;;;;;13.21;96.61;100613.63;7365096;19;20336;-55
2022/11/14 05:09:06;;;;;;;;;;;;;;;13.23;97.14;100618.75;7365599;19;20258;-58
2022/11/14 05:11:33;;;;;;;;;;;;;;;13.24;97.04;100615.13;7363871;19;19953;-58
2022/11/14 05:14:00;;;;;;;;;;;;;;;13.21;96.99;100624.22;7363617;19;20439;-56
2022/11/14 05:16:26;;;;;;;;;;;;;;;13.20;97.13;100622.59;7364923;19;20449;-58
2022/11/14 05:18:53;;;;;;;;;;;;;;;13.20;97.04;100619.13;7364967;19;19961;-60
2022/11/14 05:21:20;;;;;;;;;;;;;;;13.20;97.15;100625.22;7363259;19;19995;-58
2022/11/14 05:23:47;;;;;;;;;;;;;;;13.21;97.21;100626.03;7366045;19;19938;-59
2022/11/14 05:26:17;;;;;;;;;;;;;;;13.20;97.05;100619.94;7363840;19;20006;-59
2022/11/14 05:28:44;;;;;;;;;;;;;;;13.19;96.93;100618.28;7359834;19;19923;-60
2022/11/14 05:31:12;;;;;;;;;;;;;;;13.19;97.10;100614.81;7362785;19;19947;-58
2022/11/14 05:33:39;;;;;;;;;;;;;;;13.19;97.19;100615.66;7362115;19;19922;-59
2022/11/14 05:36:10;;;;;;;;;;;;;;;13.18;97.08;100611.38;7362112;19;19930;-58
2022/11/14 05:38:37;;;;;;;;;;;;;;;13.21;97.41;100611.00;7362216;19;20675;-55
2022/11/14 05:41:05;;;;;;;;;;;;;;;13.22;97.70;100609.19;7362288;19;19919;-54
2022/11/14 05:43:32;;;;;;;;;;;;;;;13.22;97.47;100603.91;7363469;19;20525;-58
2022/11/14 05:45:59;;;;;;;;;;;;;;;13.21;97.27;100605.72;7361458;19;19935;-57
2022/11/14 05:48:26;;;;;;;;;;;;;;;13.21;97.00;100607.53;7358192;19;19943;-58
2022/11/14 05:50:54;;;;;;;;;;;;;;;13.21;97.14;100600.44;7361936;19;19915;-59
2022/11/14 05:53:21;;;;;;;;;;;;;;;13.21;96.79;100596.97;7362083;19;19927;-55
2022/11/14 05:55:47;;;;;;;;;;;;;;;13.21;97.00;100587.22;7363444;19;19919;-58
2022/11/14 05:58:14;;;;;;;;;;;;;;;13.22;96.85;100586.22;7362805;19;19943;-56
2022/11/14 06:00:41;;;;;;;;;;;;;;;13.21;96.43;100591.69;7357487;19;19932;-57
2022/11/14 06:03:18;;;;;;;;;;;;;;;13.20;96.58;100582.13;7359795;19;20354;-57
2022/11/14 06:05:45;;;;;;;;;;;;;;;13.19;96.45;100583.13;7362487;19;19923;-59
2022/11/14 06:08:12;;;;;;;;;;;;;;;13.18;96.55;100579.66;7359978;19;20552;-55
2022/11/14 06:10:39;;;;;;;;;;;;;;;13.18;96.68;100577.00;7362019;19;20369;-59
2022/11/14 06:13:05;;;;;;;;;;;;;;;13.21;96.69;100578.47;7360789;19;20207;-56
2022/11/14 06:15:32;;;;;;;;;;;;;;;13.19;96.40;100583.94;7362711;19;20777;-56
2022/11/14 06:17:59;;;;;;;;;;;;;;;13.18;96.44;100589.41;7363119;19;19914;-59
2022/11/14 06:20:25;;;;;;;;;;;;;;;13.16;96.36;100592.22;7363062;19;19965;-59
2022/11/14 06:22:54;;;;;;;;;;;;;;;13.16;96.95;100586.09;7360895;19;20326;-59
2022/11/14 06:25:20;;;;;;;;;;;;;;;13.18;97.04;100589.41;7361037;19;19927;-59
2022/11/14 06:27:47;;;;;;;;;;;;;;;13.17;96.87;100588.56;7359123;19;19953;-60
2022/11/14 06:30:14;;;;;;;;;;;;;;;13.18;96.82;100586.75;7359434;19;19983;-59
2022/11/14 06:32:41;;;;;;;;;;;;;;;13.18;96.56;100584.94;7363298;19;19923;-59
2022/11/14 06:35:07;;;;;;;;;;;;;;;13.16;96.49;100576.34;7360855;19;19923;-56
2022/11/14 06:37:36;;;;;;;;;;;;;;;13.17;96.35;100585.09;7362034;19;19923;-55
2022/11/14 06:40:03;;;;;;;;;;;;;;;13.17;96.62;100587.75;7360616;19;20570;-59
2022/11/14 06:42:29;;;;;;;;;;;;;;;13.15;96.63;100587.94;7361111;19;19922;-58
2022/11/14 06:44:56;;;;;;;;;;;;;;;13.15;96.86;100584.47;7358363;19;20319;-53
2022/11/14 06:47:23;;;;;;;;;;;;;;;13.15;96.68;100573.91;7361179;19;19952;-57
2022/11/14 06:49:49;;;;;;;;;;;;;;;13.11;96.36;100583.97;7361909;19;20556;-59
2022/11/14 06:52:16;;;;;;;;;;;;;;;13.11;96.94;100577.84;7361561;19;19950;-57
2022/11/14 06:54:43;;;;;;;;;;;;;;;13.10;96.77;100576.22;7362852;19;19960;-57
2022/11/14 06:57:10;;;;;;;;;;;;;;;13.10;96.91;100563.84;7362489;19;20777;-58
2022/11/14 06:59:37;;;;;;;;;;;;;;;13.09;96.88;100577.22;7357969;19;19922;-56
2022/11/14 07:02:03;;;;;;;;;;;;;;;13.10;97.00;100568.31;7360436;19;19945;-56
2022/11/14 07:04:30;;;;;;;;;;;;;;;13.09;97.08;100570.13;7360846;19;20205;-59
2022/11/14 07:06:57;;;;;;;;;;;;;;;13.11;97.12;100568.13;7361216;19;20550;-59
2022/11/14 07:09:24;;;;;;;;;;;;;;;13.12;97.53;100579.53;7361136;19;19938;-63
2022/11/14 07:11:51;;;;;;;;;;;;;;;13.11;97.44;100570.78;7360223;19;19919;-57
2022/11/14 07:14:18;;;;;;;;;;;;;;;13.10;97.18;100563.03;7356136;19;19936;-57
2022/11/14 07:16:45;;;;;;;;;;;;;;;13.11;96.91;100564.63;7362340;19;19963;-58
2022/11/14 07:19:12;;;;;;;;;;;;;;;13.05;96.64;100565.38;7364069;19;20547;-59
2022/11/14 07:21:39;;;;;;;;;;;;;;;13.04;96.54;100569.81;7368505;19;19926;-60
2022/11/14 07:24:06;;;;;;;;;;;;;;;13.06;96.81;100556.41;7361503;19;20754;-58
2022/11/14 07:26:33;;;;;;;;;;;;;;;13.07;97.16;100547.50;7368988;19;19929;-58
2022/11/14 07:29:00;;;;;;;;;;;;;;;13.10;97.02;100545.34;7364336;19;20193;-57
2022/11/14 07:31:28;;;;;;;;;;;;;;;13.12;96.99;100546.00;7368751;19;19923;-56
2022/11/14 07:33:55;;;;;;;;;;;;;;;13.11;96.82;100552.28;7367948;19;20368;-57
2022/11/14 07:36:22;;;;;;;;;;;;;;;13.11;97.08;100552.28;7368259;19;19927;-57
2022/11/14 07:38:49;;;;;;;;;;;;;;;13.10;97.05;100563.03;7368213;19;19918;-58
2022/11/14 07:41:16;;;;;;;;;;;;;;;13.08;96.82;100559.72;7368258;19;19945;-59
2022/11/14 07:43:43;;;;;;;;;;;;;;;13.05;96.50;100560.91;7366608;19;19934;-57
2022/11/14 07:46:11;;;;;;;;;;;;;;;13.05;96.61;100566.19;7365752;19;19919;-61
2022/11/14 07:48:38;;;;;;;;;;;;;;;13.05;96.58;100565.38;7364094;19;19927;-58
2022/11/14 07:51:06;;;;;;;;;;;;;;;13.02;96.71;100561.25;7364459;19;19930;-59
2022/11/14 07:53:33;;;;;;;;;;;;;;;13.02;96.77;100560.41;7365109;19;20921;-60
2022/11/14 07:56:01;;;;;;;;;;;;;;;13.00;96.70;100565.88;7365501;19;20043;-58
2022/11/14 07:58:28;;;;;;;;;;;;;;;13.00;96.77;100562.44;7361384;19;19937;-57
2022/11/14 08:00:59;;;;;;;;;;;;;;;12.97;96.67;100562.75;7364471;19;19918;-60
2022/11/14 08:03:26;;;;;;;;;;;;;;;12.96;96.87;100553.19;7362161;19;19923;-57
2022/11/14 08:06:03;;;;;;;;;;;;;;;12.94;97.29;100552.56;7368060;19;20184;-58
2022/11/14 08:08:30;;;;;;;;;;;;;;;12.90;97.63;100552.06;7365389;19;19930;-59
2022/11/14 08:10:58;;;;;;;;;;;;;;;12.91;98.16;100566.09;7366077;19;19980;-59
2022/11/14 08:13:26;;;;;;;;;;;;;;;12.94;98.57;100561.31;7364171;19;19929;-59
2022/11/14 08:15:59;;;;;;;;;;;;;;;12.97;98.84;100560.13;7364652;19;19915;-60
2022/11/14 08:18:26;;;;;;;;;;;;;;;13.01;98.91;100561.41;7367020;19;19919;-56
2022/11/14 08:20:56;;;;;;;;;;;;;;;13.05;98.75;100552.97;7365777;19;20312;-56
2022/11/14 08:23:23;;;;;;;;;;;;;;;13.09;98.75;100549.00;7367708;19;19926;-57
2022/11/14 08:25:50;;;;;;;;;;;;;;;13.10;98.01;100548.00;7369188;19;19982;-60
2022/11/14 08:28:17;;;;;;;;;;;;;;;13.13;98.07;100549.47;7369018;19;19914;-58
2022/11/14 08:30:44;;;;;;;;;;;;;;;13.12;97.81;100546.00;7363463;19;19918;-54
2022/11/14 08:33:10;;;;;;;;;;;;;;;13.13;98.11;100550.31;7376208;19;20344;-54
2022/11/14 08:35:37;;;;;;;;;;;;;;;13.16;98.26;100551.75;7363212;19;19922;-56
2022/11/14 08:38:04;;;;;;;;;;;;;;;13.20;98.74;100558.34;7365419;19;19994;-60
2022/11/14 08:40:31;;;;;;;;;;;;;;;13.27;99.10;100551.34;7365820;19;20346;-60
2022/11/14 08:42:59;;;;;;;;;;;;;;;13.30;98.70;100550.19;7364769;19;19965;-55
2022/11/14 08:45:27;;;;;;;;;;;;;;;13.31;98.68;100554.47;7362094;19;19950;-58
2022/11/14 08:47:54;;;;;;;;;;;;;;;13.33;98.62;100560.38;7363319;19;20230;-59
2022/11/14 08:50:21;;;;;;;;;;;;;;;13.36;98.63;100560.84;7367601;19;20186;-60
2022/11/14 08:52:49;;;;;;;;;;;;;;;13.41;98.88;100565.63;7361274;19;19923;-59
2022/11/14 08:55:17;;;;;;;;;;;;;;;13.41;98.87;100555.84;7362594;19;19933;-56
2022/11/14 08:57:44;;;;;;;;;;;;;;;13.44;98.73;100549.41;7364499;19;19925;-57
2022/11/14 09:00:15;;;;;;;;;;;;;;;13.43;98.88;100553.03;7364526;19;19996;-56
2022/11/14 09:02:42;;;;;;;;;;;;;;;13.43;98.85;100548.56;7362514;19;19922;-60
2022/11/14 09:05:09;;;;;;;;;;;;;;;13.45;99.29;100559.81;7364090;19;19918;-60
2022/11/14 09:07:37;;;;;;;;;;;;;;;13.46;99.06;100558.78;7365853;19;20118;-60
2022/11/14 09:10:04;;;;;;;;;;;;;;;13.47;98.82;100557.78;7366646;19;20840;-59
2022/11/14 09:12:31;;;;;;;;;;;;;;;13.46;98.77;100550.84;7363844;19;19923;-57
2022/11/14 09:14:58;;;;;;;;;;;;;;;13.46;98.65;100542.91;7361790;19;19922;-60
2022/11/14 09:17:25;;;;;;;;;;;;;;;13.47;98.72;100536.63;7363558;19;19931;-60
2022/11/14 09:19:52;;;;;;;;;;;;;;;13.47;98.38;100539.28;7364907;19;19982;-58
2022/11/14 09:22:18;;;;;;;;;;;;;;;13.51;98.59;100542.41;7362777;19;19929;-56
2022/11/14 09:24:46;;;;;;;;;;;;;;;13.52;98.43;100539.56;7363514;19;20034;-59
2022/11/14 09:27:13;;;;;;;;;;;;;;;13.54;98.58;100548.16;7364668;19;19942;-55
2022/11/14 09:29:40;;;;;;;;;;;;;;;13.55;98.61;100543.69;7360364;19;19934;-60
2022/11/14 09:32:08;;;;;;;;;;;;;;;13.56;98.65;100546.13;7363933;19;20307;-61
2022/11/14 09:34:36;;;;;;;;;;;;;;;13.58;98.42;100541.50;7363597;19;19923;-57
2022/11/14 09:37:03;;;;;;;;;;;;;;;13.61;98.67;100535.06;7364551;19;19990;-57
2022/11/14 09:39:29;;;;;;;;;;;;;;;13.63;98.31;100530.38;7362668;19;20340;-60
2022/11/14 09:42:07;;;;;;;;;;;;;;;13.63;97.75;100539.16;7363530;19;20373;-61
2022/11/14 09:44:49;;;;;;;;;;;;;;;13.63;97.71;100530.38;7362706;19;21716;-59
2022/11/14 09:47:20;;;;;;;;;;;;;;;13.63;97.52;100528.56;7363285;19;20224;-59
2022/11/14 09:49:49;;;;;;;;;;;;;;;13.63;97.98;100531.22;7360454;19;19911;-59
2022/11/14 09:52:26;;;;;;;;;;;;;;;13.61;98.23;100533.19;7361572;19;20305;-59
2022/11/14 09:55:02;;;;;;;;;;;;;;;13.62;98.46;100526.91;7361736;19;19919;-59
2022/11/14 09:57:29;;;;;;;;;;;;;;;13.62;98.62;100524.28;7361382;19;20263;-59
2022/11/14 09:59:56;;;;;;;;;;;;;;;13.61;98.56;100516.53;7362241;19;21501;-60
2022/11/14 10:02:30;;;;;;;;;;;;;;;13.60;98.71;100520.19;7346698;19;19923;-57
2022/11/14 10:04:58;;;;;;;;;;;;;;;13.61;98.71;100514.69;7349845;19;19926;-57
2022/11/14 10:07:34;;;;;;;;;;;;;;;13.63;99.04;100509.25;7359946;19;20402;-57
2022/11/14 10:10:08;;;;;;;;;;;;;;;13.64;98.97;100509.06;7357621;19;20289;-60
2022/11/14 10:12:36;;;;;;;;;;;;;;;13.65;99.04;100505.44;7362963;19;19994;-56
2022/11/14 10:15:09;;;;;;;;;;;;;;;13.66;98.84;100500.97;7358637;19;20555;-59
2022/11/14 10:17:39;;;;;;;;;;;;;;;13.65;99.05;100500.13;7357377;19;19933;-60
2022/11/14 10:20:17;;;;;;;;;;;;;;;13.65;98.83;100501.97;7360262;19;19922;-60
2022/11/14 10:22:53;;;;;;;;;;;;;;;13.69;98.92;100497.94;7355991;19;19929;-59
2022/11/14 10:25:32;;;;;;;;;;;;;;;13.74;99.30;100492.09;7357061;19;20252;-58
2022/11/14 10:28:06;;;;;;;;;;;;;;;13.76;98.97;100484.81;7356069;19;20548;-58
2022/11/14 10:30:36;;;;;;;;;;;;;;;13.75;98.98;100489.28;7354541;19;19923;-56
2022/11/14 10:33:12;;;;;;;;;;;;;;;13.77;98.70;100486.44;7359051;19;20507;-56
2022/11/14 10:35:42;;;;;;;;;;;;;;;13.77;99.09;100492.56;7356108;19;20311;-62
2022/11/14 10:38:20;;;;;;;;;;;;;;;13.78;99.10;100493.38;7358673;19;19994;-59
2022/11/14 10:40:51;;;;;;;;;;;;;;;13.78;99.49;100491.56;7359168;19;19982;-60
2022/11/14 10:43:24;;;;;;;;;;;;;;;13.79;99.58;100495.03;7354472;19;19914;-59
2022/11/14 10:46:00;;;;;;;;;;;;;;;13.81;100.00;100487.75;7356072;19;19923;-56
2022/11/14 10:48:27;;;;;;;;;;;;;;;13.84;100.00;100490.03;7357054;19;19919;-59
2022/11/14 10:50:56;;;;;;;;;;;;;;;13.85;100.00;100479.25;7353990;19;19950;-61
2022/11/14 10:53:31;;;;;;;;;;;;;;;13.88;100.00;100481.53;7355618;19;20213;-58
2022/11/14 10:55:58;;;;;;;;;;;;;;;13.89;100.00;100477.88;7357813;19;19922;-56
2022/11/14 10:58:30;;;;;;;;;;;;;;;13.89;100.00;100475.25;7354056;19;19911;-56
2022/11/14 11:01:22;;;;;;;;;;;;;;;13.90;100.00;100468.13;7354234;19;20245;-59
2022/11/14 11:03:49;;;;;;;;;;;;;;;13.90;100.00;100468.13;7353858;19;19927;-57
2022/11/14 11:06:24;;;;;;;;;;;;;;;13.90;100.00;100466.31;7350446;19;21381;-59
2022/11/14 11:11:28;;;;;;;;;;;;;;;13.98;100.00;100470.66;7359926;19;19923;-58
2022/11/14 11:13:56;;;;;;;;;;;;;;;13.99;100.00;100467.03;7357055;19;19923;-59
2022/11/14 11:16:24;;;;;;;;;;;;;;;14.00;100.00;100464.22;7356934;19;19930;-57
2022/11/14 11:18:51;;;;;;;;;;;;;;;14.03;100.00;100458.53;7358131;19;19930;-57
2022/11/14 11:21:19;;;;;;;;;;;;;;;14.05;100.00;100448.59;7356626;19;19921;-57
2022/11/14 11:23:51;;;;;;;;;;;;;;;14.09;100.00;100451.69;7359050;19;20375;-56
2022/11/14 11:26:18;;;;;;;;;;;;;;;14.12;100.00;100451.31;7359651;19;20464;-59
2022/11/14 11:29:00;;;;;;;;;;;;;;;14.16;100.00;100452.59;7358781;19;19945;-57
2022/11/14 11:31:27;;;;;;;;;;;;;;;14.18;100.00;100437.34;7358602;19;20376;-56
2022/11/14 11:33:54;;;;;;;;;;;;;;;14.20;100.00;100430.03;7358570;19;19982;-55
2022/11/14 11:36:22;;;;;;;;;;;;;;;14.23;100.00;100426.19;7348522;19;20485;-55
2022/11/14 11:38:49;;;;;;;;;;;;;;;14.26;100.00;100420.53;7360377;19;19923;-58
2022/11/14 11:41:21;;;;;;;;;;;;;;;14.30;100.00;100414.69;7361176;19;19986;-55
2022/11/14 11:44:11;;;;;;;;;;;;;;;14.31;100.00;100408.41;7355636;19;19939;-57
2022/11/14 11:46:41;;;;;;;;;;;;;;;14.34;100.00;100399.25;7352320;19;20738;-58
2022/11/14 11:49:18;;;;;;;;;;;;;;;14.38;100.00;100403.19;7359797;19;19939;-60
2022/11/14 11:51:46;;;;;;;;;;;;;;;14.39;99.78;100407.47;7358104;19;20534;-59
2022/11/14 11:54:15;;;;;;;;;;;;;;;14.42;99.57;100402.66;7357967;19;19919;-57
2022/11/14 11:56:44;;;;;;;;;;;;;;;14.45;99.15;100404.91;7356125;19;20483;-57
2022/11/14 11:59:12;;;;;;;;;;;;;;;14.48;99.20;100411.63;7357658;19;19931;-59
2022/11/14 12:01:39;;;;;;;;;;;;;;;14.50;99.08;100413.09;7345445;19;19923;-57
2022/11/14 12:04:06;;;;;;;;;;;;;;;14.54;98.78;100414.34;7359686;19;20285;-57
2022/11/14 12:06:38;;;;;;;;;;;;;;;14.57;98.76;100415.81;7364932;19;19926;-57
2022/11/14 12:09:13;;;;;;;;;;;;;;;14.58;98.65;100412.16;7368614;19;19923;-59
2022/11/14 12:11:43;;;;;;;;;;;;;;;14.63;98.49;100422.19;7362016;19;20535;-56
2022/11/14 12:14:23;;;;;;;;;;;;;;;14.66;98.34;100417.34;7351249;19;19982;-56
2022/11/14 12:17:13;;;;;;;;;;;;;;;14.66;97.86;100413.88;7360376;19;20418;-58
2022/11/14 12:19:53;;;;;;;;;;;;;;;14.66;97.92;100411.22;7359769;19;19938;-52
2022/11/14 12:22:32;;;;;;;;;;;;;;;14.68;97.60;100411.84;7359334;19;19934;-57
2022/11/14 12:25:02;;;;;;;;;;;;;;;14.68;97.71;100403.91;7357318;19;19923;-59
2022/11/14 12:27:41;;;;;;;;;;;;;;;14.71;97.80;100401.69;7358632;19;19934;-59
2022/11/14 12:30:12;;;;;;;;;;;;;;;14.74;97.82;100389.88;7364005;19;19983;-57
2022/11/14 12:32:43;;;;;;;;;;;;;;;14.75;97.70;100386.22;7364690;19;19923;-58
2022/11/14 12:35:19;;;;;;;;;;;;;;;14.74;97.78;100387.22;7368160;19;19943;-60
2022/11/14 12:37:48;;;;;;;;;;;;;;;14.73;97.79;100377.69;7366645;19;19926;-56
2022/11/14 12:40:25;;;;;;;;;;;;;;;14.73;97.80;100385.63;7366732;19;19919;-61
2022/11/14 12:42:52;;;;;;;;;;;;;;;14.76;97.68;100377.28;7364868;19;19931;-60
2022/11/14 12:45:29;;;;;;;;;;;;;;;14.77;97.69;100384.22;7365186;19;20273;-56